Time;durP1;ratioP1;P1;durP2;ratioP2;P2;SDS_P1;SDS_P2;PMS_P1;PMS_P2;Temp;Humidity;BMP_temperature;BMP_pressure;BME280_temperature;BME280_humidity;BME280_pressure;Samples;Min_cycle;Max_cycle;Signal;HPM_P1;HPM_P2
2021/07/15 00:02:10;;;;;;;0.68;0.30;;;18.20;77.60;;;;;;2240449;56;21107;-75
2021/07/15 00:04:38;;;;;;;1.85;0.40;;;18.20;77.50;;;;;;2334157;55;20932;-75
2021/07/15 00:07:04;;;;;;;0.35;0.13;;;18.20;77.60;;;;;;2393343;55;21417;-75
2021/07/15 00:09:30;;;;;;;0.40;0.20;;;18.30;78.40;;;;;;2236714;55;21050;-75
2021/07/15 00:11:56;;;;;;;0.50;0.22;;;18.20;77.60;;;;;;2335040;56;20971;-75
2021/07/15 00:14:24;;;;;;;0.75;0.50;;;18.20;77.70;;;;;;2243443;56;21052;-75
2021/07/15 00:16:54;;;;;;;1.85;0.40;;;18.20;77.70;;;;;;2275516;55;21093;-75
2021/07/15 00:19:22;;;;;;;0.47;0.20;;;18.20;77.70;;;;;;2221268;56;21022;-75
2021/07/15 00:21:49;;;;;;;1.05;0.30;;;18.20;77.60;;;;;;2241962;56;20949;-74
2021/07/15 00:24:17;;;;;;;3.30;0.40;;;18.20;77.60;;;;;;2233969;56;20947;-77
2021/07/15 00:26:44;;;;;;;0.50;0.20;;;18.20;77.70;;;;;;2455789;55;20985;-77
2021/07/15 00:29:11;;;;;;;0.40;0.20;;;18.20;77.70;;;;;;2292320;55;20950;-75
2021/07/15 00:31:38;;;;;;;0.88;0.30;;;18.20;77.70;;;;;;2297627;55;21054;-75
2021/07/15 00:34:04;;;;;;;0.62;0.30;;;18.20;77.70;;;;;;2239803;56;20946;-76
2021/07/15 00:36:31;;;;;;;0.30;0.20;;;18.20;77.70;;;;;;2241240;56;21031;-75
2021/07/15 00:38:57;;;;;;;0.37;0.20;;;18.20;77.70;;;;;;2238949;56;21062;-74
2021/07/15 00:41:28;;;;;;;0.20;0.20;;;18.10;77.60;;;;;;2286802;55;20966;-73
2021/07/15 00:43:54;;;;;;;0.30;0.20;;;18.10;77.70;;;;;;2257112;55;20983;-76
2021/07/15 00:46:21;;;;;;;0.28;0.20;;;18.10;77.80;;;;;;2238740;55;20982;-75
2021/07/15 00:48:47;;;;;;;1.55;0.20;;;18.10;77.80;;;;;;2240043;56;21624;-74
2021/07/15 00:51:16;;;;;;;0.28;0.20;;;18.10;77.80;;;;;;2250508;56;20969;-75
2021/07/15 00:53:42;;;;;;;0.15;0.10;;;18.10;77.80;;;;;;2236184;56;20927;-74
2021/07/15 00:56:09;;;;;;;0.10;0.10;;;18.10;77.80;;;;;;2258083;56;20922;-75
2021/07/15 00:58:35;;;;;;;0.30;0.20;;;18.10;77.90;;;;;;2240820;56;20954;-75
2021/07/15 01:01:03;;;;;;;0.45;0.20;;;18.10;78.00;;;;;;2240551;56;20978;-76
2021/07/15 01:03:29;;;;;;;0.22;0.10;;;18.10;77.80;;;;;;2330025;55;21500;-76
2021/07/15 01:05:59;;;;;;;0.68;0.20;;;18.10;77.90;;;;;;2270666;55;21129;-77
2021/07/15 01:08:25;;;;;;;0.25;0.10;;;18.10;78.00;;;;;;2253867;55;21353;-75
2021/07/15 01:11:15;;;;;;;0.40;0.10;;;18.00;78.10;;;;;;2236108;55;21814;-75
2021/07/15 01:14:00;;;;;;;1.37;0.20;;;18.10;78.20;;;;;;2305742;55;21051;-76
2021/07/15 01:16:45;;;;;;;2.60;0.30;;;18.00;78.10;;;;;;2244747;55;21038;-76
2021/07/15 01:19:48;;;;;;;0.20;0.20;;;18.10;78.20;;;;;;2224761;56;21029;-77
2021/07/15 01:22:24;;;;;;;0.30;0.10;;;18.10;78.30;;;;;;2240866;56;20981;-76
2021/07/15 01:25:15;;;;;;;0.13;0.10;;;18.10;78.40;;;;;;2363642;55;21005;-76
2021/07/15 01:27:59;;;;;;;0.10;0.10;;;18.10;78.40;;;;;;2242612;56;21300;-75
2021/07/15 01:30:33;;;;;;;0.28;0.10;;;18.10;78.40;;;;;;2238857;56;20983;-76
2021/07/15 01:33:16;;;;;;;0.10;0.10;;;18.10;78.60;;;;;;2240011;56;20950;-75
2021/07/15 01:36:03;;;;;;;0.03;0.03;;;18.10;78.50;;;;;;2243708;56;21041;-75
2021/07/15 01:39:03;;;;;;;1.98;0.20;;;18.10;78.40;;;;;;2242330;56;20968;-73
2021/07/15 01:41:34;;;;;;;0.10;0.10;;;18.10;78.70;;;;;;2235853;56;21222;-74
2021/07/15 01:44:06;;;;;;;1.52;0.10;;;18.10;78.70;;;;;;2251311;55;21046;-75
2021/07/15 01:46:32;;;;;;;1.85;0.10;;;18.10;78.70;;;;;;2243588;55;21021;-76
2021/07/15 01:48:58;;;;;;;0.10;0.00;;;18.10;78.80;;;;;;2240477;56;20962;-76
2021/07/15 01:51:26;;;;;;;0.20;0.10;;;18.10;78.80;;;;;;2242162;56;20962;-73
2021/07/15 01:53:52;;;;;;;0.00;0.00;;;18.10;78.70;;;;;;2223706;56;21002;-75
2021/07/15 01:56:18;;;;;;;0.20;0.05;;;18.10;78.50;;;;;;2257492;56;21005;-75
2021/07/15 01:58:45;;;;;;;0.13;0.10;;;18.10;78.50;;;;;;2240047;56;21435;-74
2021/07/15 02:01:12;;;;;;;0.37;0.20;;;18.10;78.60;;;;;;2238130;56;21513;-75
2021/07/15 02:03:42;;;;;;;1.52;0.20;;;18.10;78.60;;;;;;2450401;55;20961;-74
2021/07/15 02:06:09;;;;;;;0.43;0.13;;;18.10;78.60;;;;;;2338721;56;21006;-74
2021/07/15 02:08:35;;;;;;;0.20;0.10;;;18.10;78.60;;;;;;2242771;56;20975;-73
2021/07/15 02:11:01;;;;;;;0.62;0.20;;;18.10;78.70;;;;;;2262345;56;20961;-74
2021/07/15 02:13:29;;;;;;;0.30;0.10;;;18.10;78.50;;;;;;2239117;56;21919;-73
2021/07/15 02:15:55;;;;;;;0.40;0.10;;;18.10;78.50;;;;;;2239548;56;21823;-76
2021/07/15 02:18:21;;;;;;;0.40;0.10;;;18.10;78.60;;;;;;2242077;56;20962;-73
2021/07/15 02:20:50;;;;;;;0.15;0.08;;;18.10;78.70;;;;;;2393880;55;21009;-77
2021/07/15 02:23:17;;;;;;;0.68;0.15;;;18.10;78.80;;;;;;2222785;56;21044;-75
2021/07/15 02:25:43;;;;;;;0.90;0.10;;;18.10;78.90;;;;;;2397468;55;21017;-74
2021/07/15 02:28:11;;;;;;;0.10;0.10;;;18.10;78.90;;;;;;2249470;55;20988;-75
2021/07/15 02:30:37;;;;;;;0.50;0.20;;;18.10;78.90;;;;;;2239480;56;20962;-75
2021/07/15 02:33:06;;;;;;;1.35;0.20;;;18.10;78.90;;;;;;2238838;56;20984;-75
2021/07/15 02:35:35;;;;;;;0.25;0.20;;;18.10;79.00;;;;;;2257232;55;21114;-74
2021/07/15 02:38:01;;;;;;;0.50;0.15;;;18.10;79.00;;;;;;2296039;55;20994;-74
2021/07/15 02:40:28;;;;;;;0.77;0.25;;;18.10;79.10;;;;;;2246788;55;21033;-74
2021/07/15 02:42:54;;;;;;;0.20;0.10;;;18.10;79.20;;;;;;2293121;55;21304;-76
2021/07/15 02:45:21;;;;;;;0.75;0.40;;;18.20;79.30;;;;;;2237496;56;21864;-74
2021/07/15 02:47:47;;;;;;;0.30;0.10;;;18.20;79.40;;;;;;2240071;56;20995;-74
2021/07/15 02:50:16;;;;;;;1.27;0.20;;;18.20;79.40;;;;;;2238669;56;21074;-74
2021/07/15 02:52:43;;;;;;;0.28;0.10;;;18.20;79.40;;;;;;2222261;55;21006;-74
2021/07/15 02:55:10;;;;;;;0.70;0.20;;;18.20;79.40;;;;;;2286680;55;20950;-74
2021/07/15 03:00:31;;;;;;;0.25;0.10;;;18.20;79.40;;;;;;2236724;56;20986;-74
2021/07/15 03:03:19;;;;;;;0.25;0.15;;;18.30;79.10;;;;;;2240330;56;20966;-74
2021/07/15 03:06:14;;;;;;;0.20;0.10;;;18.40;79.00;;;;;;2238631;56;21835;-73
2021/07/15 03:09:13;;;;;;;0.93;0.32;;;18.40;78.90;;;;;;2239473;56;21039;-74
2021/07/15 03:11:45;;;;;;;2.05;0.20;;;18.40;78.80;;;;;;2240238;56;20994;-74
2021/07/15 03:14:11;;;;;;;0.55;0.30;;;18.40;79.10;;;;;;2241902;56;20966;-74
2021/07/15 03:16:40;;;;;;;1.37;0.35;;;18.40;79.00;;;;;;2236086;56;21042;-75
2021/07/15 03:19:06;;;;;;;2.05;0.30;;;18.40;79.10;;;;;;2238886;56;20982;-74
2021/07/15 03:21:32;;;;;;;0.62;0.20;;;18.50;79.30;;;;;;2454355;55;21057;-74
2021/07/15 03:23:59;;;;;;;0.62;0.20;;;18.40;79.10;;;;;;2236072;55;20976;-74
2021/07/15 03:26:26;;;;;;;0.37;0.32;;;18.50;79.20;;;;;;2238649;56;21970;-74
2021/07/15 03:28:53;;;;;;;0.32;0.20;;;18.50;79.20;;;;;;2237175;56;20959;-74
2021/07/15 03:31:19;;;;;;;0.70;0.30;;;18.50;79.20;;;;;;2242592;55;21464;-73
2021/07/15 03:33:49;;;;;;;0.45;0.20;;;18.50;79.20;;;;;;2375655;55;20969;-74
2021/07/15 03:36:15;;;;;;;0.93;0.30;;;18.50;79.20;;;;;;2243442;56;20974;-76
2021/07/15 03:38:42;;;;;;;0.70;0.20;;;18.50;79.10;;;;;;2322413;55;21021;-74
2021/07/15 03:41:11;;;;;;;0.30;0.20;;;18.70;79.40;;;;;;2240765;56;21063;-76
2021/07/15 03:43:38;;;;;;;0.15;0.15;;;18.60;79.30;;;;;;2242838;56;20970;-75
2021/07/15 03:46:04;;;;;;;0.20;0.10;;;18.60;79.30;;;;;;2241407;56;20958;-73
2021/07/15 03:48:30;;;;;;;1.48;0.20;;;18.60;79.20;;;;;;2250632;55;21050;-72
2021/07/15 03:51:01;;;;;;;0.52;0.10;;;18.60;79.20;;;;;;2255671;55;20981;-74
2021/07/15 03:53:28;;;;;;;0.20;0.10;;;18.70;79.20;;;;;;2287785;56;21916;-75
2021/07/15 03:55:58;;;;;;;0.50;0.20;;;18.70;79.20;;;;;;2237904;56;20946;-73
2021/07/15 03:58:24;;;;;;;0.85;0.20;;;18.70;79.30;;;;;;2312361;56;21059;-73
2021/07/15 04:00:50;;;;;;;0.47;0.20;;;18.70;79.30;;;;;;2239052;56;21829;-73
2021/07/15 04:03:18;;;;;;;0.55;0.20;;;18.70;79.30;;;;;;2258572;55;20974;-73
2021/07/15 04:05:46;;;;;;;0.52;0.20;;;18.70;79.10;;;;;;2220845;56;21043;-74
2021/07/15 04:08:12;;;;;;;1.67;0.50;;;18.80;79.20;;;;;;2396334;55;20964;-75
2021/07/15 04:10:39;;;;;;;0.15;0.15;;;18.80;79.20;;;;;;2241065;55;21001;-74
2021/07/15 04:13:05;;;;;;;0.52;0.20;;;18.80;79.10;;;;;;2257696;55;21028;-75
2021/07/15 04:16:07;;;;;;;0.50;0.25;;;18.80;79.00;;;;;;2236722;55;20946;-73
2021/07/15 04:18:35;;;;;;;0.28;0.10;;;18.80;79.00;;;;;;2240705;56;20971;-73
2021/07/15 04:21:05;;;;;;;0.57;0.20;;;18.90;79.10;;;;;;2243980;56;21990;-74
2021/07/15 04:23:31;;;;;;;0.55;0.30;;;18.90;79.10;;;;;;2321964;55;21066;-73
2021/07/15 04:25:58;;;;;;;0.55;0.30;;;18.90;79.00;;;;;;2238492;55;20982;-73
2021/07/15 04:28:24;;;;;;;0.47;0.20;;;18.90;79.80;;;;;;2238453;56;21031;-74
2021/07/15 04:30:55;;;;;;;2.95;0.20;;;18.90;79.00;;;;;;2241742;56;20962;-73
2021/07/15 04:33:22;;;;;;;0.68;0.30;;;18.90;78.90;;;;;;2237035;56;21019;-72
2021/07/15 04:35:48;;;;;;;0.57;0.28;;;18.90;79.10;;;;;;2240071;56;20990;-73
2021/07/15 04:38:15;;;;;;;0.50;0.20;;;18.90;79.20;;;;;;2244958;56;20970;-73
2021/07/15 04:40:42;;;;;;;0.45;0.20;;;18.90;79.10;;;;;;2240111;56;20962;-73
2021/07/15 04:43:09;;;;;;;0.22;0.20;;;18.90;79.20;;;;;;2236787;56;20938;-73
2021/07/15 04:45:38;;;;;;;0.32;0.20;;;19.00;79.30;;;;;;2240625;56;21022;-73
2021/07/15 04:48:05;;;;;;;0.80;0.28;;;19.00;79.20;;;;;;2247878;55;21010;-73
2021/07/15 04:50:33;;;;;;;0.60;0.22;;;19.00;79.30;;;;;;2245811;55;20971;-73
2021/07/15 04:53:06;;;;;;;0.35;0.20;;;19.00;79.30;;;;;;2432053;55;21047;-73
2021/07/15 04:55:33;;;;;;;0.15;0.10;;;19.10;79.40;;;;;;2345413;55;21045;-74
2021/07/15 04:58:00;;;;;;;0.82;0.20;;;19.10;79.50;;;;;;2241380;56;21071;-73
2021/07/15 05:00:26;;;;;;;0.65;0.30;;;19.10;80.30;;;;;;2239752;56;20962;-73
2021/07/15 05:02:59;;;;;;;0.70;0.30;;;19.10;79.60;;;;;;2235144;56;21041;-74
2021/07/15 05:05:28;;;;;;;;;;;19.20;79.60;;;;;;2249193;55;21352;-73
2021/07/15 05:07:54;;;;;;;1.50;0.32;;;19.20;78.90;;;;;;2327231;55;20114;-75
2021/07/15 05:10:20;;;;;;;0.93;0.40;;;19.20;79.50;;;;;;2244440;55;20946;-74
2021/07/15 05:12:48;;;;;;;1.98;0.22;;;19.30;79.70;;;;;;2242700;56;21070;-74
2021/07/15 05:15:15;;;;;;;0.90;0.40;;;19.30;79.80;;;;;;2240437;56;21050;-72
2021/07/15 05:17:41;;;;;;;0.88;0.30;;;19.30;79.80;;;;;;2240238;56;20974;-73
2021/07/15 05:20:10;;;;;;;0.62;0.30;;;19.30;79.90;;;;;;2376069;55;20995;-74
2021/07/15 05:22:37;;;;;;;0.20;0.10;;;19.40;80.10;;;;;;2238292;55;21110;-74
2021/07/15 05:25:05;;;;;;;0.37;0.20;;;19.40;80.00;;;;;;2235738;56;21391;-74
2021/07/15 05:27:33;;;;;;;1.65;0.37;;;19.50;80.10;;;;;;2348897;55;21042;-74
2021/07/15 05:29:59;;;;;;;0.43;0.17;;;19.50;80.10;;;;;;2242746;56;21518;-73
2021/07/15 05:32:26;;;;;;;0.70;0.30;;;19.50;80.10;;;;;;2288463;55;20979;-74
2021/07/15 05:34:55;;;;;;;0.50;0.20;;;19.60;80.10;;;;;;2343469;55;20959;-74
2021/07/15 05:37:21;;;;;;;0.55;0.20;;;19.60;80.00;;;;;;2235808;56;20998;-73
2021/07/15 05:39:47;;;;;;;0.65;0.22;;;19.70;80.00;;;;;;2457850;55;20955;-73
2021/07/15 05:42:14;;;;;;;0.10;0.10;;;19.70;80.00;;;;;;2241039;55;21025;-75
2021/07/15 05:44:40;;;;;;;1.35;0.25;;;19.70;79.90;;;;;;2246025;56;21614;-73
2021/07/15 05:47:08;;;;;;;0.55;0.20;;;19.80;79.90;;;;;;2238952;56;20921;-74
2021/07/15 05:49:37;;;;;;;1.15;0.20;;;19.80;79.90;;;;;;2254264;56;20919;-74
2021/07/15 05:52:04;;;;;;;0.62;0.20;;;19.90;80.00;;;;;;2253930;55;21908;-74
2021/07/15 05:54:31;;;;;;;0.10;0.10;;;19.90;80.00;;;;;;2238168;56;20930;-74
2021/07/15 05:56:58;;;;;;;0.55;0.20;;;19.90;80.00;;;;;;2301984;55;22071;-74
2021/07/15 05:59:24;;;;;;;0.17;0.10;;;19.90;79.80;;;;;;2249413;55;21114;-73
2021/07/15 06:01:51;;;;;;;0.65;0.20;;;20.00;79.80;;;;;;2293497;55;21874;-73
2021/07/15 06:04:17;;;;;;;0.62;0.30;;;20.00;79.60;;;;;;2238715;56;20939;-73
2021/07/15 06:06:43;;;;;;;0.52;0.17;;;20.00;79.50;;;;;;2235008;56;21085;-73
2021/07/15 06:09:10;;;;;;;0.85;0.20;;;20.10;79.60;;;;;;2242872;56;25974;-73
2021/07/15 06:11:36;;;;;;;0.28;0.10;;;20.10;79.40;;;;;;2237978;56;20978;-75
2021/07/15 06:14:03;;;;;;;0.32;0.20;;;20.10;79.40;;;;;;2320230;56;21513;-73
2021/07/15 06:16:30;;;;;;;0.70;0.30;;;20.20;79.20;;;;;;2242547;56;20958;-73
2021/07/15 06:18:56;;;;;;;0.40;0.22;;;20.20;79.20;;;;;;2238424;55;20970;-73
2021/07/15 06:21:22;;;;;;;0.28;0.17;;;20.20;79.10;;;;;;2368762;55;21014;-72
2021/07/15 06:23:49;;;;;;;1.12;0.37;;;20.20;79.20;;;;;;2404826;55;21131;-74
2021/07/15 06:26:18;;;;;;;0.62;0.20;;;20.20;79.00;;;;;;2240901;56;20995;-74
2021/07/15 06:28:44;;;;;;;0.10;0.10;;;20.30;79.20;;;;;;2416881;55;20986;-72
2021/07/15 06:31:15;;;;;;;0.47;0.20;;;20.30;79.10;;;;;;2398032;55;21053;-75
2021/07/15 06:33:50;;;;;;;0.93;0.30;;;20.30;79.00;;;;;;2252809;55;20974;-73
2021/07/15 06:36:16;;;;;;;1.65;0.20;;;20.30;78.50;;;;;;2305160;56;20954;-75
2021/07/15 06:38:42;;;;;;;0.85;0.30;;;20.30;78.70;;;;;;2277755;55;21085;-74
2021/07/15 06:41:09;;;;;;;0.45;0.20;;;20.40;78.70;;;;;;2292122;55;21034;-74
2021/07/15 06:43:39;;;;;;;0.20;0.13;;;20.40;78.70;;;;;;2233544;55;21022;-75
2021/07/15 06:46:05;;;;;;;0.65;0.15;;;20.50;78.90;;;;;;2239951;56;21078;-73
2021/07/15 06:48:32;;;;;;;0.40;0.20;;;20.40;78.90;;;;;;2456821;55;20950;-74
2021/07/15 06:51:00;;;;;;;1.30;0.30;;;20.50;79.10;;;;;;2237831;56;20987;-73
2021/07/15 06:53:26;;;;;;;0.37;0.20;;;20.50;79.00;;;;;;2235487;56;21045;-75
2021/07/15 06:55:53;;;;;;;0.20;0.10;;;20.50;79.00;;;;;;2248487;55;20958;-74
2021/07/15 06:58:22;;;;;;;1.33;0.20;;;20.50;78.80;;;;;;2248686;55;21050;-74
2021/07/15 07:00:50;;;;;;;0.62;0.28;;;20.60;78.80;;;;;;2239377;56;21006;-74
2021/07/15 07:03:17;;;;;;;0.30;0.20;;;20.60;78.70;;;;;;2226701;56;21887;-74
2021/07/15 07:05:44;;;;;;;0.10;0.10;;;20.60;78.90;;;;;;2241193;55;21052;-74
2021/07/15 07:08:15;;;;;;;0.10;0.10;;;20.50;78.70;;;;;;2234575;56;21070;-74
2021/07/15 07:10:41;;;;;;;1.00;0.30;;;20.60;78.80;;;;;;2242235;56;21035;-74
2021/07/15 07:13:08;;;;;;;0.80;0.30;;;20.60;79.00;;;;;;2256387;55;21015;-75
2021/07/15 07:15:34;;;;;;;0.35;0.20;;;20.60;79.00;;;;;;2243104;55;21002;-74
2021/07/15 07:18:02;;;;;;;0.22;0.20;;;20.70;79.10;;;;;;2316240;55;21042;-74
2021/07/15 07:20:29;;;;;;;1.35;0.30;;;20.70;79.10;;;;;;2231622;56;21075;-74
2021/07/15 07:22:56;;;;;;;0.22;0.13;;;20.80;79.50;;;;;;2450837;55;20954;-74
2021/07/15 07:25:22;;;;;;;0.55;0.20;;;20.80;79.70;;;;;;2242677;56;21756;-74
2021/07/15 07:27:48;;;;;;;0.90;0.30;;;20.90;80.70;;;;;;2323054;55;21046;-75
2021/07/15 07:30:16;;;;;;;0.45;0.17;;;20.90;79.90;;;;;;2244042;56;20994;-74
2021/07/15 07:32:43;;;;;;;0.30;0.20;;;20.90;79.50;;;;;;2219162;56;21103;-74
2021/07/15 07:35:10;;;;;;;0.47;0.20;;;21.00;79.40;;;;;;2239752;56;21022;-75
2021/07/15 07:37:37;;;;;;;0.75;0.30;;;21.10;79.60;;;;;;2257793;56;21527;-74
2021/07/15 07:40:05;;;;;;;0.73;0.30;;;21.10;79.70;;;;;;2221571;56;20958;-74
2021/07/15 07:42:32;;;;;;;0.82;0.40;;;21.20;79.80;;;;;;2255239;55;21017;-74
2021/07/15 07:44:58;;;;;;;2.47;0.22;;;21.30;79.50;;;;;;2272633;56;21021;-74
2021/07/15 07:47:24;;;;;;;0.35;0.15;;;21.30;79.40;;;;;;2218262;56;20950;-75
2021/07/15 07:49:50;;;;;;;1.05;0.62;;;21.40;79.60;;;;;;2240682;56;21062;-74
2021/07/15 07:52:17;;;;;;;0.52;0.10;;;21.40;79.80;;;;;;2239241;56;20954;-75
2021/07/15 07:54:43;;;;;;;0.65;0.30;;;21.40;79.70;;;;;;2242382;56;21098;-75
2021/07/15 07:57:10;;;;;;;0.73;0.30;;;21.50;79.40;;;;;;2247843;55;21043;-76
2021/07/15 07:59:36;;;;;;;0.57;0.30;;;21.60;78.90;;;;;;2235096;56;20958;-75
2021/07/15 08:02:03;;;;;;;0.37;0.20;;;21.60;78.30;;;;;;2240548;56;21066;-76
2021/07/15 08:04:30;;;;;;;0.77;0.30;;;21.60;78.30;;;;;;2365098;55;20966;-74
2021/07/15 08:06:56;;;;;;;0.43;0.20;;;21.60;78.40;;;;;;2280620;55;20980;-74
2021/07/15 08:09:24;;;;;;;0.37;0.20;;;21.70;78.60;;;;;;2237997;56;21016;-77
2021/07/15 08:11:54;;;;;;;1.52;0.20;;;21.70;78.70;;;;;;2244439;55;21011;-74
2021/07/15 08:14:21;;;;;;;0.68;0.20;;;21.70;78.80;;;;;;2322572;55;21855;-75
2021/07/15 08:16:50;;;;;;;1.15;0.35;;;21.80;79.10;;;;;;2242148;56;20942;-75
2021/07/15 08:19:17;;;;;;;0.70;0.30;;;21.80;78.80;;;;;;2242613;56;20946;-74
2021/07/15 08:21:43;;;;;;;0.57;0.20;;;21.80;78.50;;;;;;2238898;56;20933;-75
2021/07/15 08:24:11;;;;;;;0.47;0.20;;;21.90;78.60;;;;;;2237985;56;21037;-77
2021/07/15 08:26:37;;;;;;;0.43;0.22;;;21.90;78.60;;;;;;2252742;55;21010;-75
2021/07/15 08:29:04;;;;;;;0.13;0.13;;;22.00;78.70;;;;;;2421759;55;20982;-75
2021/07/15 08:31:30;;;;;;;0.77;0.30;;;22.00;78.60;;;;;;2243983;56;21405;-75
2021/07/15 08:33:58;;;;;;;0.57;0.20;;;22.10;78.60;;;;;;2238399;56;20999;-76
2021/07/15 08:36:26;;;;;;;1.25;0.20;;;22.10;78.70;;;;;;2239036;56;20958;-75
2021/07/15 08:38:52;;;;;;;0.37;0.20;;;22.10;78.50;;;;;;2244361;56;20963;-77
2021/07/15 08:41:18;;;;;;;1.35;0.35;;;22.20;78.50;;;;;;2280982;55;21085;-75
2021/07/15 08:43:45;;;;;;;0.40;0.20;;;22.20;78.20;;;;;;2237141;56;21030;-75
2021/07/15 08:46:11;;;;;;;1.27;0.20;;;22.20;78.00;;;;;;2393431;55;21470;-77
2021/07/15 08:48:38;;;;;;;0.57;0.20;;;22.30;77.80;;;;;;2228283;56;20994;-74
2021/07/15 08:51:05;;;;;;;3.17;0.30;;;22.30;77.80;;;;;;2239803;56;21762;-75
2021/07/15 08:53:32;;;;;;;1.48;0.40;;;22.30;77.90;;;;;;2243000;56;20969;-75
2021/07/15 08:58:47;;;;;;;0.88;0.20;;;22.30;77.70;;;;;;2239670;56;20946;-77
2021/07/15 09:01:13;;;;;;;0.32;0.20;;;22.30;77.90;;;;;;2241653;56;21318;-74
2021/07/15 09:03:40;;;;;;;2.05;0.30;;;22.30;78.00;;;;;;2236683;56;21466;-74
2021/07/15 09:06:06;;;;;;;0.68;0.13;;;22.40;78.20;;;;;;2239392;56;20998;-75
2021/07/15 09:08:33;;;;;;;0.98;0.30;;;22.40;78.20;;;;;;2384903;55;20974;-74
2021/07/15 09:11:02;;;;;;;0.82;0.30;;;22.40;78.00;;;;;;2240914;56;20990;-74
2021/07/15 09:13:28;;;;;;;0.90;0.35;;;22.50;77.80;;;;;;2251913;56;21074;-78
2021/07/15 09:15:55;;;;;;;0.62;0.25;;;22.50;77.70;;;;;;2249102;55;21048;-74
2021/07/15 09:18:21;;;;;;;0.37;0.30;;;22.50;77.50;;;;;;2251011;55;21996;-75
2021/07/15 09:20:51;;;;;;;0.68;0.30;;;22.50;77.50;;;;;;2243803;55;20994;-75
2021/07/15 09:23:19;;;;;;;0.28;0.20;;;22.60;77.20;;;;;;2242262;56;21021;-77
2021/07/15 09:25:55;;;;;;;0.20;0.20;;;22.60;77.20;;;;;;2268706;55;21068;-76
2021/07/15 09:28:26;;;;;;;2.37;0.30;;;22.60;76.80;;;;;;2241509;55;21110;-74
2021/07/15 09:30:52;;;;;;;0.47;0.20;;;22.60;77.10;;;;;;2292942;56;21037;-73
2021/07/15 09:33:19;;;;;;;0.85;0.25;;;22.60;77.50;;;;;;2241820;56;20994;-75
2021/07/15 09:35:46;;;;;;;1.10;0.30;;;22.70;77.60;;;;;;2234567;56;20999;-74
2021/07/15 09:38:23;;;;;;;0.43;0.20;;;22.70;77.60;;;;;;2339573;56;21019;-77
2021/07/15 09:41:00;;;;;;;0.32;0.20;;;22.70;77.10;;;;;;2244971;56;21002;-78
2021/07/15 09:43:28;;;;;;;0.30;0.20;;;22.80;77.50;;;;;;2245738;55;20981;-74
2021/07/15 09:46:00;;;;;;;0.37;0.17;;;22.80;78.00;;;;;;2246472;55;21044;-75
2021/07/15 09:48:29;;;;;;;0.62;0.30;;;22.90;77.90;;;;;;2237332;56;21002;-75
2021/07/15 09:50:57;;;;;;;0.32;0.20;;;22.90;78.00;;;;;;2304606;56;21042;-77
2021/07/15 09:53:27;;;;;;;0.30;0.20;;;23.00;78.00;;;;;;2240301;56;20981;-75
2021/07/15 09:56:04;;;;;;;0.43;0.25;;;23.00;78.10;;;;;;2407462;55;21067;-75
2021/07/15 09:58:39;;;;;;;0.32;0.10;;;23.10;77.80;;;;;;2308149;55;20946;-75
2021/07/15 10:01:10;;;;;;;0.40;0.20;;;23.20;77.80;;;;;;2238633;56;21763;-77
2021/07/15 10:03:40;;;;;;;0.60;0.20;;;23.20;78.00;;;;;;2240356;56;20930;-75
2021/07/15 10:06:07;;;;;;;2.00;0.20;;;23.20;77.80;;;;;;2225530;56;20931;-75
2021/07/15 10:08:35;;;;;;;0.50;0.30;;;23.30;77.60;;;;;;2339398;55;21455;-75
2021/07/15 10:11:28;;;;;;;0.22;0.20;;;23.40;77.10;;;;;;2238947;56;21031;-74
2021/07/15 10:14:05;;;;;;;0.40;0.10;;;23.40;75.80;;;;;;2246204;56;20958;-79
2021/07/15 10:16:38;;;;;;;1.25;0.35;;;23.40;76.00;;;;;;2254546;55;20949;-75
2021/07/15 10:19:06;;;;;;;0.20;0.17;;;23.40;76.20;;;;;;2243846;55;21942;-76
2021/07/15 10:21:33;;;;;;;0.13;0.10;;;23.50;76.80;;;;;;2238708;55;21001;-77
2021/07/15 10:24:13;;;;;;;0.22;0.10;;;23.50;76.80;;;;;;2222158;56;21107;-75
2021/07/15 10:26:43;;;;;;;1.52;0.20;;;23.50;77.10;;;;;;2221803;57;21466;-75
2021/07/15 10:29:09;;;;;;;0.10;0.10;;;23.60;77.10;;;;;;2246513;56;21035;-75
2021/07/15 10:31:37;;;;;;;0.95;0.20;;;23.60;77.20;;;;;;2264074;55;21081;-75
2021/07/15 10:34:04;;;;;;;0.45;0.20;;;23.60;77.20;;;;;;2238885;56;20969;-79
2021/07/15 10:36:31;;;;;;;0.20;0.20;;;23.70;77.40;;;;;;2241550;56;20954;-74
2021/07/15 10:38:58;;;;;;;1.35;0.25;;;23.70;77.30;;;;;;2239443;56;20998;-75
2021/07/15 10:41:26;;;;;;;0.77;0.30;;;23.80;76.90;;;;;;2238978;56;20936;-75
2021/07/15 10:43:53;;;;;;;0.60;0.20;;;23.80;76.50;;;;;;2240933;56;20986;-75
2021/07/15 10:46:21;;;;;;;0.25;0.20;;;23.80;76.40;;;;;;2300118;56;20982;-75
2021/07/15 10:48:48;;;;;;;0.47;0.20;;;23.90;76.50;;;;;;2275609;56;21022;-75
2021/07/15 10:51:14;;;;;;;0.50;0.30;;;23.90;76.60;;;;;;2366033;55;20970;-75
2021/07/15 10:53:40;;;;;;;1.87;0.17;;;23.90;76.60;;;;;;2362964;55;21053;-75
2021/07/15 10:56:07;;;;;;;0.32;0.20;;;24.00;77.50;;;;;;2238918;55;21085;-77
2021/07/15 10:58:52;;;;;;;0.32;0.20;;;24.10;77.10;;;;;;2240212;56;20935;-75
2021/07/15 11:03:14;;;;;;;0.82;0.40;;;24.10;75.80;;;;;;2222740;56;20957;-75
2021/07/15 11:05:55;;;;;;;0.37;0.20;;;24.20;75.30;;;;;;2264722;56;22028;-75
2021/07/15 11:09:02;;;;;;;2.20;0.20;;;24.20;76.00;;;;;;2245317;56;20994;-75
2021/07/15 11:11:39;;;;;;;1.02;0.10;;;24.30;75.60;;;;;;2237840;55;20982;-75
2021/07/15 11:14:05;;;;;;;0.98;0.40;;;24.40;76.30;;;;;;2236280;56;21006;-74
2021/07/15 11:16:48;;;;;;;0.65;0.30;;;24.40;77.10;;;;;;2222671;56;21789;-75
2021/07/15 11:19:58;;;;;;;1.37;0.30;;;24.50;75.70;;;;;;2238191;56;20934;-74
2021/07/15 11:23:59;;;;;;;1.08;0.50;;;24.60;75.40;;;;;;2276085;56;21003;-74
2021/07/15 11:26:27;;;;;;;0.80;0.40;;;24.70;75.50;;;;;;2240517;56;21054;-74
2021/07/15 11:28:53;;;;;;;1.00;0.50;;;24.70;76.40;;;;;;2265686;56;21109;-76
2021/07/15 11:31:44;;;;;;;1.95;0.50;;;24.80;76.30;;;;;;2239356;56;21010;-75
2021/07/15 11:34:50;;;;;;;1.02;0.40;;;24.80;75.20;;;;;;2315254;55;21329;-75
2021/07/15 11:38:23;;;;;;;0.70;0.30;;;24.90;75.50;;;;;;2242665;56;21025;-73
2021/07/15 11:40:50;;;;;;;1.65;0.37;;;25.00;74.70;;;;;;2242456;56;21051;-74
2021/07/15 11:43:22;;;;;;;0.80;0.32;;;25.00;76.40;;;;;;2232958;55;21003;-74
2021/07/15 11:46:13;;;;;;;1.75;0.50;;;25.10;76.20;;;;;;2246629;55;20946;-76
2021/07/15 11:52:14;;;;;;;0.80;0.40;;;25.10;74.50;;;;;;2239507;56;21486;-74
2021/07/15 11:54:44;;;;;;;0.88;0.40;;;25.20;75.50;;;;;;2353809;56;21038;-75
2021/07/15 11:57:28;;;;;;;0.98;0.43;;;25.20;75.70;;;;;;2237751;56;20954;-74
2021/07/15 12:03:31;;;;;;;1.25;0.55;;;25.30;74.00;;;;;;2349099;55;21765;-74
2021/07/15 12:06:10;;;;;;;0.95;0.60;;;25.30;74.00;;;;;;2280771;55;21083;-74
2021/07/15 12:08:37;;;;;;;0.95;0.35;;;25.40;75.40;;;;;;2243653;56;21407;-74
2021/07/15 12:11:03;;;;;;;0.70;0.40;;;25.40;76.70;;;;;;2301664;55;21522;-75
2021/07/15 12:13:30;;;;;;;1.10;0.47;;;25.40;76.60;;;;;;2273193;55;21074;-74
2021/07/15 12:15:56;;;;;;;2.58;0.50;;;25.50;76.70;;;;;;2249652;55;20930;-75
2021/07/15 12:18:23;;;;;;;0.93;0.40;;;25.50;77.00;;;;;;2310289;55;20950;-74
2021/07/15 12:20:55;;;;;;;3.28;0.65;;;25.60;76.90;;;;;;2236147;56;20970;-74
2021/07/15 12:23:34;;;;;;;1.10;0.50;;;25.70;76.30;;;;;;2236903;56;21918;-74
2021/07/15 12:26:03;;;;;;;1.15;0.43;;;25.70;74.70;;;;;;2245161;56;20974;-75
2021/07/15 12:28:30;;;;;;;1.42;0.43;;;25.70;75.70;;;;;;2251523;55;21066;-75
2021/07/15 12:31:09;;;;;;;1.27;0.57;;;25.70;75.80;;;;;;2243032;55;20970;-75
2021/07/15 12:33:46;;;;;;;1.05;0.60;;;25.80;75.70;;;;;;2239820;56;21074;-73
2021/07/15 12:36:27;;;;;;;1.45;0.47;;;25.80;74.50;;;;;;2266430;55;20977;-75
2021/07/15 12:38:56;;;;;;;1.00;0.40;;;25.80;74.30;;;;;;2418903;55;21006;-74
2021/07/15 12:41:29;;;;;;;0.80;0.40;;;25.80;74.30;;;;;;2255761;55;20999;-75
2021/07/15 12:44:00;;;;;;;1.27;0.50;;;25.80;73.10;;;;;;2234725;56;21025;-74
2021/07/15 12:46:31;;;;;;;1.10;0.45;;;25.70;73.40;;;;;;2245799;56;21965;-75
2021/07/15 12:48:59;;;;;;;1.40;0.60;;;25.70;73.10;;;;;;2263025;55;21545;-72
2021/07/15 12:51:46;;;;;;;0.93;0.50;;;25.60;72.90;;;;;;2240325;55;21038;-75
2021/07/15 12:54:27;;;;;;;2.00;0.70;;;25.50;71.50;;;;;;2287449;55;21062;-73
2021/07/15 12:56:54;;;;;;;1.48;0.57;;;25.40;72.90;;;;;;2324739;56;21055;-74
2021/07/15 12:59:22;;;;;;;1.65;0.70;;;25.40;73.50;;;;;;2235605;56;20964;-75
2021/07/15 13:01:50;;;;;;;2.05;0.62;;;25.40;73.80;;;;;;2236925;55;21155;-75
2021/07/15 13:04:21;;;;;;;1.02;0.52;;;25.30;74.30;;;;;;2238339;56;20971;-74
2021/07/15 13:06:49;;;;;;;1.33;0.55;;;25.30;74.30;;;;;;2240551;56;21027;-75
2021/07/15 13:18:13;;;;;;;1.90;0.37;;;25.40;75.20;;;;;;2371563;55;20954;-73
2021/07/15 13:20:43;;;;;;;1.10;0.50;;;25.40;74.70;;;;;;2243776;56;20990;-75
2021/07/15 13:23:10;;;;;;;1.52;0.50;;;25.50;74.70;;;;;;2223718;56;21034;-75
2021/07/15 13:25:47;;;;;;;1.15;0.50;;;25.40;75.90;;;;;;2240382;56;21029;-75
2021/07/15 13:28:14;;;;;;;0.62;0.40;;;25.50;75.70;;;;;;2231697;56;20978;-74